sensor_id;sensor_type;location;lat;lon;timestamp;pressure;altitude;pressure_sealevel;temperature;humidity
22181;BME280;11256;50.830;12.834;2023-01-31T00:04:21;97680.22;;;3.24;80.71
22181;BME280;11256;50.830;12.834;2023-01-31T00:09:21;97680.44;;;3.23;80.71
22181;BME280;11256;50.830;12.834;2023-01-31T00:14:22;97670.53;;;3.23;80.80
22181;BME280;11256;50.830;12.834;2023-01-31T00:19:24;97666.22;;;3.22;80.70
22181;BME280;11256;50.830;12.834;2023-01-31T00:24:24;97677.75;;;3.23;81.05
22181;BME280;11256;50.830;12.834;2023-01-31T00:29:24;97708.00;;;3.23;80.82
22181;BME280;11256;50.830;12.834;2023-01-31T00:34:25;97734.78;;;3.23;81.33
22181;BME280;11256;50.830;12.834;2023-01-31T00:39:25;97744.69;;;3.23;81.16
22181;BME280;11256;50.830;12.834;2023-01-31T00:44:25;97745.47;;;3.23;80.74
22181;BME280;11256;50.830;12.834;2023-01-31T00:49:26;97740.25;;;3.17;80.79
22181;BME280;11256;50.830;12.834;2023-01-31T00:54:26;97727.31;;;3.14;80.91
22181;BME280;11256;50.830;12.834;2023-01-31T00:59:28;97737.81;;;3.15;80.80
22181;BME280;11256;50.830;12.834;2023-01-31T01:04:28;97741.19;;;3.11;81.05
22181;BME280;11256;50.830;12.834;2023-01-31T01:09:28;97744.88;;;3.10;81.23
22181;BME280;11256;50.830;12.834;2023-01-31T01:14:29;97744.88;;;3.10;80.94
22181;BME280;11256;50.830;12.834;2023-01-31T01:19:29;97749.44;;;3.09;80.91
22181;BME280;11256;50.830;12.834;2023-01-31T01:24:29;97754.19;;;3.07;80.94
22181;BME280;11256;50.830;12.834;2023-01-31T01:29:30;97759.81;;;3.06;80.79
22181;BME280;11256;50.830;12.834;2023-01-31T01:34:31;97747.94;;;3.02;81.21
22181;BME280;11256;50.830;12.834;2023-01-31T01:39:31;97742.22;;;2.98;81.04
22181;BME280;11256;50.830;12.834;2023-01-31T01:44:50;97764.81;;;3.02;81.34
22181;BME280;11256;50.830;12.834;2023-01-31T01:49:58;97767.22;;;3.04;81.50
22181;BME280;11256;50.830;12.834;2023-01-31T01:55:15;97759.81;;;3.06;81.42
22181;BME280;11256;50.830;12.834;2023-01-31T02:00:22;97777.94;;;3.04;81.30
22181;BME280;11256;50.830;12.834;2023-01-31T02:05:30;97784.69;;;3.06;81.54
22181;BME280;11256;50.830;12.834;2023-01-31T02:10:37;97783.75;;;3.01;81.50
22181;BME280;11256;50.830;12.834;2023-01-31T02:15:40;97811.56;;;3.00;81.65
22181;BME280;11256;50.830;12.834;2023-01-31T02:26:26;97817.50;;;3.02;81.54
22181;BME280;11256;50.830;12.834;2023-01-31T02:32:29;97822.50;;;2.98;81.97
22181;BME280;11256;50.830;12.834;2023-01-31T02:37:48;97828.66;;;2.99;81.12
22181;BME280;11256;50.830;12.834;2023-01-31T02:43:07;97822.94;;;2.95;81.58
22181;BME280;11256;50.830;12.834;2023-01-31T02:53:35;97825.84;;;2.94;81.23
22181;BME280;11256;50.830;12.834;2023-01-31T02:58:37;97858.34;;;2.97;81.58
22181;BME280;11256;50.830;12.834;2023-01-31T03:03:41;97871.94;;;2.96;81.38
22181;BME280;11256;50.830;12.834;2023-01-31T03:08:43;97871.94;;;2.96;81.56
22181;BME280;11256;50.830;12.834;2023-01-31T03:13:57;97869.97;;;2.91;81.68
22181;BME280;11256;50.830;12.834;2023-01-31T03:19:15;97885.75;;;2.93;81.26
22181;BME280;11256;50.830;12.834;2023-01-31T03:24:20;97906.13;;;2.94;81.59
22181;BME280;11256;50.830;12.834;2023-01-31T03:29:27;97893.78;;;2.93;81.58
22181;BME280;11256;50.830;12.834;2023-01-31T03:34:29;97907.84;;;2.88;81.44
22181;BME280;11256;50.830;12.834;2023-01-31T03:39:37;97905.09;;;2.95;81.26
22181;BME280;11256;50.830;12.834;2023-01-31T03:44:55;97927.09;;;2.97;81.57
22181;BME280;11256;50.830;12.834;2023-01-31T03:50:02;97920.66;;;2.86;81.58
22181;BME280;11256;50.830;12.834;2023-01-31T03:55:09;97921.47;;;2.87;81.21
22181;BME280;11256;50.830;12.834;2023-01-31T04:00:15;97926.81;;;2.87;81.10
22181;BME280;11256;50.830;12.834;2023-01-31T04:05:24;97932.31;;;2.92;81.31
22181;BME280;11256;50.830;12.834;2023-01-31T04:10:30;97934.97;;;2.92;81.04
22181;BME280;11256;50.830;12.834;2023-01-31T04:15:30;97926.81;;;2.87;81.25
22181;BME280;11256;50.830;12.834;2023-01-31T04:20:31;97910.75;;;2.87;80.99
22181;BME280;11256;50.830;12.834;2023-01-31T04:25:31;97913.56;;;2.92;80.83
22181;BME280;11256;50.830;12.834;2023-01-31T04:30:31;97927.91;;;2.97;81.01
22181;BME280;11256;50.830;12.834;2023-01-31T04:35:32;97929.41;;;2.93;81.35
22181;BME280;11256;50.830;12.834;2023-01-31T04:40:34;97927.78;;;2.92;81.38
22181;BME280;11256;50.830;12.834;2023-01-31T04:45:34;97909.13;;;2.86;81.22
22181;BME280;11256;50.830;12.834;2023-01-31T04:50:34;97935.31;;;2.84;81.62
22181;BME280;11256;50.830;12.834;2023-01-31T04:55:35;97914.34;;;2.81;81.40
22181;BME280;11256;50.830;12.834;2023-01-31T05:00:35;97911.66;;;2.81;81.87
22181;BME280;11256;50.830;12.834;2023-01-31T05:05:36;97912.84;;;2.85;81.74
22181;BME280;11256;50.830;12.834;2023-01-31T05:10:36;97916.25;;;2.92;81.45
22181;BME280;11256;50.830;12.834;2023-01-31T05:15:36;97929.63;;;2.92;81.09
22181;BME280;11256;50.830;12.834;2023-01-31T05:20:37;97944.50;;;2.88;81.41
22181;BME280;11256;50.830;12.834;2023-01-31T05:25:39;97954.97;;;2.89;81.39
22181;BME280;11256;50.830;12.834;2023-01-31T05:30:40;97946.00;;;2.84;81.24
22181;BME280;11256;50.830;12.834;2023-01-31T05:35:40;97953.94;;;2.90;81.40
22181;BME280;11256;50.830;12.834;2023-01-31T05:40:41;97941.66;;;2.83;81.02
22181;BME280;11256;50.830;12.834;2023-01-31T05:45:42;97950.31;;;2.85;81.03
22181;BME280;11256;50.830;12.834;2023-01-31T05:50:42;97958.34;;;2.85;81.33
22181;BME280;11256;50.830;12.834;2023-01-31T05:55:42;97957.28;;;2.86;81.16
22181;BME280;11256;50.830;12.834;2023-01-31T06:00:43;97949.94;;;2.81;80.84
22181;BME280;11256;50.830;12.834;2023-01-31T06:05:44;97927.06;;;2.67;80.90
22181;BME280;11256;50.830;12.834;2023-01-31T06:10:44;97954.09;;;2.77;81.09
22181;BME280;11256;50.830;12.834;2023-01-31T06:15:44;97959.00;;;2.80;81.01
22181;BME280;11256;50.830;12.834;2023-01-31T06:20:45;97955.81;;;2.72;81.19
22181;BME280;11256;50.830;12.834;2023-01-31T06:25:52;97973.25;;;2.74;81.34
22181;BME280;11256;50.830;12.834;2023-01-31T06:30:53;97971.06;;;2.71;81.24
22181;BME280;11256;50.830;12.834;2023-01-31T06:35:58;97972.69;;;2.72;81.13
22181;BME280;11256;50.830;12.834;2023-01-31T06:40:58;97969.84;;;2.67;80.99
22181;BME280;11256;50.830;12.834;2023-01-31T06:45:58;97983.16;;;2.74;80.73
22181;BME280;11256;50.830;12.834;2023-01-31T06:51:00;97993.88;;;2.74;80.90
22181;BME280;11256;50.830;12.834;2023-01-31T06:56:00;97980.13;;;2.70;80.96
22181;BME280;11256;50.830;12.834;2023-01-31T07:01:09;97973.56;;;2.66;80.68
22181;BME280;11256;50.830;12.834;2023-01-31T07:06:10;97971.72;;;2.67;81.31
22181;BME280;11256;50.830;12.834;2023-01-31T07:11:11;97981.75;;;2.71;80.91
22181;BME280;11256;50.830;12.834;2023-01-31T07:16:11;97996.53;;;2.74;81.09
22181;BME280;11256;50.830;12.834;2023-01-31T07:21:11;97989.31;;;2.74;80.88
22181;BME280;11256;50.830;12.834;2023-01-31T07:26:12;97981.69;;;2.78;80.67
22181;BME280;11256;50.830;12.834;2023-01-31T07:31:13;97996.00;;;2.83;81.20
22181;BME280;11256;50.830;12.834;2023-01-31T07:36:14;97991.50;;;2.84;80.64
22181;BME280;11256;50.830;12.834;2023-01-31T07:41:15;97978.84;;;2.91;80.69
22181;BME280;11256;50.830;12.834;2023-01-31T07:46:16;97991.16;;;2.92;80.82
22181;BME280;11256;50.830;12.834;2023-01-31T07:51:16;98006.66;;;2.90;80.66
22181;BME280;11256;50.830;12.834;2023-01-31T07:56:19;98004.69;;;2.97;80.56
22181;BME280;11256;50.830;12.834;2023-01-31T08:01:22;97990.13;;;2.93;80.11
22181;BME280;11256;50.830;12.834;2023-01-31T08:06:43;97995.56;;;3.04;80.06
22181;BME280;11256;50.830;12.834;2023-01-31T08:11:44;97996.97;;;3.07;79.92
22181;BME280;11256;50.830;12.834;2023-01-31T08:16:44;97981.34;;;3.04;79.85
22181;BME280;11256;50.830;12.834;2023-01-31T08:21:45;98000.34;;;3.14;79.97
22181;BME280;11256;50.830;12.834;2023-01-31T08:26:45;97990.69;;;3.13;79.51
22181;BME280;11256;50.830;12.834;2023-01-31T08:31:45;98003.59;;;3.34;79.54
22181;BME280;11256;50.830;12.834;2023-01-31T08:36:46;97997.00;;;3.48;79.88
22181;BME280;11256;50.830;12.834;2023-01-31T08:41:46;98002.81;;;3.86;82.42
22181;BME280;11256;50.830;12.834;2023-01-31T08:46:47;97995.63;;;4.67;82.18
22181;BME280;11256;50.830;12.834;2023-01-31T08:51:47;98001.34;;;5.21;80.49
22181;BME280;11256;50.830;12.834;2023-01-31T08:56:47;97997.19;;;5.42;79.33
22181;BME280;11256;50.830;12.834;2023-01-31T09:01:48;97990.75;;;5.43;77.33
22181;BME280;11256;50.830;12.834;2023-01-31T09:06:48;97991.91;;;5.47;76.29
22181;BME280;11256;50.830;12.834;2023-01-31T09:11:48;97985.44;;;5.76;76.61
22181;BME280;11256;50.830;12.834;2023-01-31T09:16:49;97972.13;;;5.81;74.86
22181;BME280;11256;50.830;12.834;2023-01-31T09:21:49;97964.63;;;5.83;74.65
22181;BME280;11256;50.830;12.834;2023-01-31T09:26:49;97973.56;;;5.72;72.47
22181;BME280;11256;50.830;12.834;2023-01-31T09:31:50;97963.22;;;5.52;73.14
22181;BME280;11256;50.830;12.834;2023-01-31T09:36:51;97954.09;;;5.37;73.27
22181;BME280;11256;50.830;12.834;2023-01-31T09:41:57;97947.72;;;5.26;73.03
22181;BME280;11256;50.830;12.834;2023-01-31T09:47:21;97938.66;;;5.16;73.14
22181;BME280;11256;50.830;12.834;2023-01-31T09:52:27;97928.09;;;4.98;73.25
22181;BME280;11256;50.830;12.834;2023-01-31T10:13:11;97927.88;;;4.88;74.19
22181;BME280;11256;50.830;12.834;2023-01-31T10:23:29;97909.59;;;4.85;74.29
22181;BME280;11256;50.830;12.834;2023-01-31T10:28:45;97902.69;;;4.89;74.41
22181;BME280;11256;50.830;12.834;2023-01-31T10:33:56;97889.75;;;4.86;74.10
22181;BME280;11256;50.830;12.834;2023-01-31T10:39:17;97887.41;;;4.89;74.88
22181;BME280;11256;50.830;12.834;2023-01-31T10:44:31;97894.44;;;5.07;74.63
22181;BME280;11256;50.830;12.834;2023-01-31T10:49:35;97871.16;;;5.12;75.04
22181;BME280;11256;50.830;12.834;2023-01-31T10:55:04;97878.88;;;5.37;74.94
22181;BME280;11256;50.830;12.834;2023-01-31T11:00:15;97860.16;;;5.42;75.05
22181;BME280;11256;50.830;12.834;2023-01-31T11:05:21;97868.16;;;5.53;74.30
22181;BME280;11256;50.830;12.834;2023-01-31T11:10:30;97865.69;;;5.68;73.48
22181;BME280;11256;50.830;12.834;2023-01-31T11:15:37;97852.50;;;5.67;72.82
22181;BME280;11256;50.830;12.834;2023-01-31T11:20:45;97822.03;;;5.61;72.95
22181;BME280;11256;50.830;12.834;2023-01-31T11:25:48;97820.97;;;5.62;73.34
22181;BME280;11256;50.830;12.834;2023-01-31T11:30:52;97816.91;;;5.60;73.12
22181;BME280;11256;50.830;12.834;2023-01-31T11:35:53;97797.44;;;5.53;72.69
22181;BME280;11256;50.830;12.834;2023-01-31T11:40:54;97800.69;;;5.55;72.84
22181;BME280;11256;50.830;12.834;2023-01-31T11:45:59;97784.56;;;5.55;72.89
22181;BME280;11256;50.830;12.834;2023-01-31T11:51:01;97736.31;;;5.43;72.96
22181;BME280;11256;50.830;12.834;2023-01-31T11:56:13;97772.72;;;5.51;72.72
22181;BME280;11256;50.830;12.834;2023-01-31T12:01:17;97770.88;;;5.56;72.49
22181;BME280;11256;50.830;12.834;2023-01-31T12:06:38;97774.81;;;5.49;71.63
22181;BME280;11256;50.830;12.834;2023-01-31T12:11:49;97758.03;;;5.42;72.03
22181;BME280;11256;50.830;12.834;2023-01-31T12:16:53;97772.72;;;5.51;72.55
22181;BME280;11256;50.830;12.834;2023-01-31T12:22:04;97735.31;;;5.33;72.03
22181;BME280;11256;50.830;12.834;2023-01-31T12:38:23;97702.53;;;5.31;72.71
22181;BME280;11256;50.830;12.834;2023-01-31T13:05:26;97630.81;;;4.93;74.75
22181;BME280;11256;50.830;12.834;2023-01-31T13:10:38;97623.81;;;4.92;75.38
22181;BME280;11256;50.830;12.834;2023-01-31T13:15:43;97613.59;;;4.89;75.11
22181;BME280;11256;50.830;12.834;2023-01-31T13:20:53;97610.00;;;4.84;75.76
22181;BME280;11256;50.830;12.834;2023-01-31T13:26:02;97603.59;;;4.85;75.98
22181;BME280;11256;50.830;12.834;2023-01-31T13:31:08;97597.63;;;4.83;76.00
22181;BME280;11256;50.830;12.834;2023-01-31T13:36:24;97570.16;;;4.76;76.57
22181;BME280;11256;50.830;12.834;2023-01-31T13:41:29;97566.78;;;4.64;77.04
22181;BME280;11256;50.830;12.834;2023-01-31T13:46:37;97564.81;;;4.59;77.19
22181;BME280;11256;50.830;12.834;2023-01-31T13:52:16;97573.75;;;4.65;76.74
22181;BME280;11256;50.830;12.834;2023-01-31T13:57:22;97538.16;;;4.53;76.85
22181;BME280;11256;50.830;12.834;2023-01-31T14:02:23;97547.13;;;4.42;77.39
22181;BME280;11256;50.830;12.834;2023-01-31T14:07:24;97537.94;;;4.38;77.21
22181;BME280;11256;50.830;12.834;2023-01-31T14:12:30;97540.13;;;4.24;77.37
22181;BME280;11256;50.830;12.834;2023-01-31T14:22:36;97565.09;;;4.25;77.56
22181;BME280;11256;50.830;12.834;2023-01-31T14:27:59;97570.84;;;4.17;77.63
22181;BME280;11256;50.830;12.834;2023-01-31T14:33:04;97577.50;;;4.14;77.55
22181;BME280;11256;50.830;12.834;2023-01-31T14:43:22;97562.63;;;4.07;77.93
22181;BME280;11256;50.830;12.834;2023-01-31T14:54:05;97578.41;;;3.92;78.39
22181;BME280;11256;50.830;12.834;2023-01-31T14:59:27;97564.66;;;4.00;78.03
22181;BME280;11256;50.830;12.834;2023-01-31T15:04:28;97565.63;;;3.94;78.38
22181;BME280;11256;50.830;12.834;2023-01-31T15:09:38;97558.31;;;3.89;78.13
22181;BME280;11256;50.830;12.834;2023-01-31T15:14:40;97569.81;;;3.90;78.54
22181;BME280;11256;50.830;12.834;2023-01-31T15:25:07;97568.66;;;3.86;78.69
22181;BME280;11256;50.830;12.834;2023-01-31T15:30:19;97560.91;;;3.84;78.60
22181;BME280;11256;50.830;12.834;2023-01-31T15:35:22;97566.72;;;3.81;78.80
22181;BME280;11256;50.830;12.834;2023-01-31T15:40:25;97556.97;;;3.75;79.18
22181;BME280;11256;50.830;12.834;2023-01-31T15:45:29;97563.16;;;3.76;79.20
22181;BME280;11256;50.830;12.834;2023-01-31T15:50:31;97546.63;;;3.67;79.50
22181;BME280;11256;50.830;12.834;2023-01-31T15:55:34;97536.63;;;3.63;79.48
22181;BME280;11256;50.830;12.834;2023-01-31T16:00:36;97546.19;;;3.59;79.57
22181;BME280;11256;50.830;12.834;2023-01-31T16:05:38;97536.31;;;3.59;79.61
22181;BME280;11256;50.830;12.834;2023-01-31T16:10:39;97548.97;;;3.64;79.62
22181;BME280;11256;50.830;12.834;2023-01-31T16:15:41;97562.88;;;3.61;79.53
22181;BME280;11256;50.830;12.834;2023-01-31T16:20:50;97551.22;;;3.55;80.10
22181;BME280;11256;50.830;12.834;2023-01-31T16:26:10;97554.63;;;3.51;80.37
22181;BME280;11256;50.830;12.834;2023-01-31T16:31:13;97575.00;;;3.52;80.15
22181;BME280;11256;50.830;12.834;2023-01-31T16:36:21;97552.31;;;3.43;80.67
22181;BME280;11256;50.830;12.834;2023-01-31T16:46:43;97532.28;;;3.45;80.11
22181;BME280;11256;50.830;12.834;2023-01-31T16:51:46;97543.59;;;3.47;80.13
22181;BME280;11256;50.830;12.834;2023-01-31T16:57:05;97553.47;;;3.47;80.49
22181;BME280;11256;50.830;12.834;2023-01-31T17:02:15;97561.59;;;3.52;80.73
22181;BME280;11256;50.830;12.834;2023-01-31T17:12:27;97574.91;;;3.47;80.67
22181;BME280;11256;50.830;12.834;2023-01-31T17:17:32;97571.56;;;3.40;80.82
22181;BME280;11256;50.830;12.834;2023-01-31T17:22:33;97569.53;;;3.47;80.95
22181;BME280;11256;50.830;12.834;2023-01-31T17:27:33;97552.25;;;3.38;81.16
22181;BME280;11256;50.830;12.834;2023-01-31T17:32:34;97590.97;;;3.47;81.47
22181;BME280;11256;50.830;12.834;2023-01-31T17:37:34;97562.56;;;3.46;81.10
22181;BME280;11256;50.830;12.834;2023-01-31T17:42:35;97562.78;;;3.44;81.48
22181;BME280;11256;50.830;12.834;2023-01-31T17:47:35;97567.69;;;3.47;81.29
22181;BME280;11256;50.830;12.834;2023-01-31T17:52:35;97564.78;;;3.49;81.50
22181;BME280;11256;50.830;12.834;2023-01-31T17:57:36;97570.59;;;3.46;81.57
22181;BME280;11256;50.830;12.834;2023-01-31T18:02:37;97563.72;;;3.50;81.29
22181;BME280;11256;50.830;12.834;2023-01-31T18:07:41;97563.00;;;3.54;81.23
22181;BME280;11256;50.830;12.834;2023-01-31T18:12:42;97570.56;;;3.57;81.21
22181;BME280;11256;50.830;12.834;2023-01-31T18:17:42;97569.75;;;3.57;81.50
22181;BME280;11256;50.830;12.834;2023-01-31T18:22:42;97562.78;;;3.56;81.19
22181;BME280;11256;50.830;12.834;2023-01-31T18:27:42;97556.44;;;3.62;81.67
22181;BME280;11256;50.830;12.834;2023-01-31T18:32:43;97573.69;;;3.66;81.69
22181;BME280;11256;50.830;12.834;2023-01-31T18:37:43;97531.28;;;3.63;81.49
22181;BME280;11256;50.830;12.834;2023-01-31T18:42:43;97548.50;;;3.67;81.21
22181;BME280;11256;50.830;12.834;2023-01-31T18:47:44;97539.22;;;3.58;82.08
22181;BME280;11256;50.830;12.834;2023-01-31T18:52:44;97540.38;;;3.62;81.73
22181;BME280;11256;50.830;12.834;2023-01-31T18:57:46;97515.44;;;3.61;81.92
22181;BME280;11256;50.830;12.834;2023-01-31T19:02:50;97507.66;;;3.60;82.16
22181;BME280;11256;50.830;12.834;2023-01-31T19:07:51;97515.44;;;3.61;81.75
22181;BME280;11256;50.830;12.834;2023-01-31T19:12:51;97521.84;;;3.60;81.90
22181;BME280;11256;50.830;12.834;2023-01-31T19:17:51;97520.38;;;3.53;82.49
22181;BME280;11256;50.830;12.834;2023-01-31T19:22:52;97507.00;;;3.53;82.63
22181;BME280;11256;50.830;12.834;2023-01-31T19:27:52;97498.47;;;3.56;82.23
22181;BME280;11256;50.830;12.834;2023-01-31T19:32:53;97504.91;;;3.55;82.36
22181;BME280;11256;50.830;12.834;2023-01-31T19:37:53;97496.53;;;3.51;82.15
22181;BME280;11256;50.830;12.834;2023-01-31T19:42:55;97518.38;;;3.60;82.16
22181;BME280;11256;50.830;12.834;2023-01-31T19:47:58;97501.81;;;3.63;81.96
22181;BME280;11256;50.830;12.834;2023-01-31T19:52:59;97513.59;;;3.62;81.79
22181;BME280;11256;50.830;12.834;2023-01-31T19:57:59;97510.16;;;3.50;82.60
22181;BME280;11256;50.830;12.834;2023-01-31T20:02:59;97531.38;;;3.68;82.12
22181;BME280;11256;50.830;12.834;2023-01-31T20:08:00;97513.69;;;3.67;82.14
22181;BME280;11256;50.830;12.834;2023-01-31T20:13:00;97520.09;;;3.66;82.13
22181;BME280;11256;50.830;12.834;2023-01-31T20:18:01;97515.53;;;3.66;82.65
22181;BME280;11256;50.830;12.834;2023-01-31T20:23:02;97515.16;;;3.74;82.16
22181;BME280;11256;50.830;12.834;2023-01-31T20:28:02;97506.28;;;3.74;82.24
22181;BME280;11256;50.830;12.834;2023-01-31T20:33:02;97507.44;;;3.78;81.94
22181;BME280;11256;50.830;12.834;2023-01-31T20:38:03;97501.75;;;3.74;81.90
22181;BME280;11256;50.830;12.834;2023-01-31T20:43:04;97493.97;;;3.73;81.94
22181;BME280;11256;50.830;12.834;2023-01-31T20:48:04;97501.03;;;3.79;82.19
22181;BME280;11256;50.830;12.834;2023-01-31T20:53:05;97506.16;;;3.80;82.65
22181;BME280;11256;50.830;12.834;2023-01-31T20:58:05;97498.69;;;3.82;82.00
22181;BME280;11256;50.830;12.834;2023-01-31T21:03:05;97508.09;;;3.85;82.73
22181;BME280;11256;50.830;12.834;2023-01-31T21:08:06;97513.69;;;3.83;82.25
22181;BME280;11256;50.830;12.834;2023-01-31T21:13:06;97543.03;;;3.90;82.19
22181;BME280;11256;50.830;12.834;2023-01-31T21:18:08;97542.94;;;3.85;82.31
22181;BME280;11256;50.830;12.834;2023-01-31T21:23:08;97533.28;;;3.84;82.03
22181;BME280;11256;50.830;12.834;2023-01-31T21:28:08;97549.69;;;3.87;82.29
22181;BME280;11256;50.830;12.834;2023-01-31T21:33:09;97552.44;;;3.92;82.16
22181;BME280;11256;50.830;12.834;2023-01-31T21:38:09;97531.00;;;3.92;82.16
22181;BME280;11256;50.830;12.834;2023-01-31T21:43:09;97544.19;;;3.94;82.02
22181;BME280;11256;50.830;12.834;2023-01-31T21:48:10;97540.91;;;3.92;82.03
22181;BME280;11256;50.830;12.834;2023-01-31T21:53:29;97555.44;;;3.96;82.03
22181;BME280;11256;50.830;12.834;2023-01-31T21:58:30;97555.53;;;4.01;82.35
22181;BME280;11256;50.830;12.834;2023-01-31T22:03:30;97552.78;;;3.96;82.21
22181;BME280;11256;50.830;12.834;2023-01-31T22:08:31;97555.06;;;4.04;82.14
22181;BME280;11256;50.830;12.834;2023-01-31T22:13:32;97555.06;;;4.04;81.88
22181;BME280;11256;50.830;12.834;2023-01-31T22:18:34;97531.66;;;3.99;81.67
22181;BME280;11256;50.830;12.834;2023-01-31T22:23:36;97523.88;;;3.98;81.81
22181;BME280;11256;50.830;12.834;2023-01-31T22:28:37;97539.78;;;4.04;81.45
22181;BME280;11256;50.830;12.834;2023-01-31T22:33:39;97555.06;;;4.04;81.94
22181;BME280;11256;50.830;12.834;2023-01-31T22:38:40;97535.16;;;4.00;81.94
22181;BME280;11256;50.830;12.834;2023-01-31T22:43:44;97534.66;;;4.03;81.63
22181;BME280;11256;50.830;12.834;2023-01-31T22:48:45;97537.84;;;4.00;82.10
22181;BME280;11256;50.830;12.834;2023-01-31T22:53:49;97525.00;;;4.02;81.78
22181;BME280;11256;50.830;12.834;2023-01-31T22:58:57;97521.75;;;4.00;81.89
22181;BME280;11256;50.830;12.834;2023-01-31T23:03:59;97519.63;;;4.02;81.58
22181;BME280;11256;50.830;12.834;2023-01-31T23:09:00;97520.63;;;3.96;81.78
22181;BME280;11256;50.830;12.834;2023-01-31T23:14:00;97531.03;;;4.09;82.04
22181;BME280;11256;50.830;12.834;2023-01-31T23:19:02;97527.44;;;4.03;81.47
22181;BME280;11256;50.830;12.834;2023-01-31T23:24:02;97526.47;;;4.09;81.57
22181;BME280;11256;50.830;12.834;2023-01-31T23:29:03;97537.50;;;4.13;81.54
22181;BME280;11256;50.830;12.834;2023-01-31T23:34:03;97544.03;;;4.17;81.71
22181;BME280;11256;50.830;12.834;2023-01-31T23:39:06;97532.97;;;4.13;81.59
22181;BME280;11256;50.830;12.834;2023-01-31T23:44:06;97542.16;;;4.17;81.37
22181;BME280;11256;50.830;12.834;2023-01-31T23:49:06;97537.13;;;4.21;81.54
22181;BME280;11256;50.830;12.834;2023-01-31T23:54:07;97543.28;;;4.21;81.34
22181;BME280;11256;50.830;12.834;2023-01-31T23:59:07;97547.03;;;4.20;81.44
